createdAt,value
2023-05-01T00:02:15.464Z,101701.53
2023-05-01T00:05:02.143Z,101701.47
2023-05-01T00:07:50.787Z,101700.56
2023-05-01T00:10:37.924Z,101700.56
2023-05-01T00:13:24.706Z,101701.44
2023-05-01T00:16:13.322Z,101702.31
2023-05-01T00:18:59.732Z,101698.84
2023-05-01T00:21:47.068Z,101698.00
2023-05-01T00:24:35.289Z,101689.19
2023-05-01T00:27:21.847Z,101695.25
2023-05-01T00:30:09.706Z,101684.75
2023-05-01T00:32:56.601Z,101685.53
2023-05-01T00:35:45.208Z,101679.41
2023-05-01T00:38:31.724Z,101677.63
2023-05-01T00:41:19.967Z,101675.94
2023-05-01T00:44:06.711Z,101663.69
2023-05-01T00:46:54.729Z,101670.69
2023-05-01T00:49:43.415Z,101675.16
2023-05-01T00:52:30.008Z,101666.22
2023-05-01T00:55:17.486Z,101667.91
2023-05-01T00:58:06.262Z,101669.63
2023-05-01T01:00:53.373Z,101667.06
2023-05-01T01:03:40.497Z,101663.50
2023-05-01T01:06:34.581Z,101667.72
2023-05-01T01:09:38.820Z,101661.56
2023-05-01T01:12:33.072Z,101652.88
2023-05-01T01:15:29.415Z,101657.25
2023-05-01T01:18:20.533Z,101662.38
2023-05-01T01:21:12.817Z,101655.31
2023-05-01T01:24:27.876Z,101656.25
2023-05-01T01:27:39.955Z,101651.06
2023-05-01T01:31:00.110Z,101650.94
2023-05-01T01:34:02.529Z,101647.44
2023-05-01T01:36:56.837Z,101619.31
2023-05-01T01:39:50.655Z,101640.44
2023-05-01T01:42:41.927Z,101637.13
2023-05-01T01:45:41.063Z,101636.06
2023-05-01T01:48:34.214Z,101637.00
2023-05-01T01:51:23.627Z,101638.84
2023-05-01T01:54:12.593Z,101622.22
2023-05-01T01:57:02.712Z,101629.09
2023-05-01T01:59:51.348Z,101629.16
2023-05-01T02:02:39.692Z,101617.66
2023-05-01T02:05:28.356Z,101623.84
2023-05-01T02:08:17.772Z,101629.88
2023-05-01T02:11:06.299Z,101592.06
2023-05-01T02:13:55.866Z,101617.66
2023-05-01T02:16:43.654Z,101623.75
2023-05-01T02:19:33.262Z,101613.25
2023-05-01T02:22:22.587Z,101602.63
2023-05-01T02:25:12.642Z,101613.16
2023-05-01T02:28:05.636Z,101596.50
2023-05-01T02:30:59.650Z,101599.19
2023-05-01T02:33:49.524Z,101601.78
2023-05-01T02:39:42.213Z,101588.75
2023-05-01T02:42:32.354Z,101590.56
2023-05-01T02:45:21.623Z,101586.22
2023-05-01T02:48:11.147Z,101580.94
2023-05-01T02:50:59.396Z,101589.69
2023-05-01T02:53:47.410Z,101592.22
2023-05-01T02:56:40.165Z,101588.75
2023-05-01T02:59:28.238Z,101580.72
2023-05-01T03:02:15.918Z,101579.94
2023-05-01T03:05:02.304Z,101569.56
2023-05-01T03:07:49.260Z,101572.91
2023-05-01T03:10:36.396Z,101568.44
2023-05-01T03:13:23.255Z,101569.31
2023-05-01T03:16:11.330Z,101557.78
2023-05-01T03:18:58.055Z,101563.97
2023-05-01T03:21:44.926Z,101559.66
2023-05-01T03:24:31.536Z,101554.28
2023-05-01T03:27:18.321Z,101543.81
2023-05-01T03:30:05.865Z,101548.28
2023-05-01T03:32:58.848Z,101555.31
2023-05-01T03:35:50.212Z,101546.50
2023-05-01T03:38:36.994Z,101549.09
2023-05-01T03:41:29.710Z,101539.66
2023-05-01T03:44:31.261Z,101543.97
2023-05-01T03:47:17.838Z,101533.56
2023-05-01T03:50:06.962Z,101538.91
2023-05-01T03:52:53.948Z,101535.44
2023-05-01T03:55:40.794Z,101539.00
2023-05-01T03:58:27.636Z,101544.31
2023-05-01T04:01:14.508Z,101525.94
2023-05-01T04:04:04.155Z,101536.47
2023-05-01T04:06:52.250Z,101531.28
2023-05-01T04:09:39.004Z,101533.00
2023-05-01T04:12:25.972Z,101528.69
2023-05-01T04:15:15.316Z,101528.78
2023-05-01T04:18:02.832Z,101534.94
2023-05-01T04:20:49.469Z,101535.84
2023-05-01T04:23:37.514Z,101534.19
2023-05-01T04:26:24.323Z,101523.75
2023-05-01T04:29:11.217Z,101526.44
2023-05-01T04:31:58.241Z,101523.84
2023-05-01T04:34:45.090Z,101515.97
2023-05-01T04:37:31.644Z,101520.34
2023-05-01T04:40:19.710Z,101528.22
2023-05-01T04:43:06.253Z,101519.38
2023-05-01T04:45:53.066Z,101515.84
2023-05-01T04:48:39.707Z,101513.13
2023-05-01T04:51:26.467Z,101503.44
2023-05-01T04:54:13.368Z,101503.47
2023-05-01T04:57:01.468Z,101506.84
2023-05-01T04:59:48.368Z,101504.81
2023-05-01T05:02:35.308Z,101496.56
2023-05-01T05:05:21.968Z,101502.25
2023-05-01T05:08:10.412Z,101496.16
2023-05-01T05:11:03.599Z,101491.84
2023-05-01T05:13:57.228Z,101485.69
2023-05-01T05:16:44.561Z,101481.31
2023-05-01T05:19:31.345Z,101488.50
2023-05-01T05:22:18.288Z,101484.78
2023-05-01T05:25:24.041Z,101485.53
2023-05-01T05:28:10.680Z,101477.59
2023-05-01T05:30:59.392Z,101473.22
2023-05-01T05:33:46.996Z,101460.22
2023-05-01T05:36:35.643Z,101468.16
2023-05-01T05:39:23.704Z,101469.50
2023-05-01T05:42:10.758Z,101466.66
2023-05-01T05:44:57.553Z,101457.72
2023-05-01T05:47:46.117Z,101453.72
2023-05-01T05:50:33.299Z,101454.16
2023-05-01T05:53:20.228Z,101459.00
2023-05-01T05:56:07.932Z,101454.72
2023-05-01T05:58:54.859Z,101457.66
2023-05-01T06:01:42.796Z,101450.59
2023-05-01T06:04:31.039Z,101444.44
2023-05-01T06:07:17.619Z,101448.69
2023-05-01T06:10:05.708Z,101437.94
2023-05-01T06:12:58.116Z,101446.84
2023-05-01T06:15:57.887Z,101451.66
2023-05-01T06:18:45.823Z,101445.44
2023-05-01T06:21:35.162Z,101447.59
2023-05-01T06:24:21.943Z,101452.25
2023-05-01T06:27:11.312Z,101448.44
2023-05-01T06:29:58.238Z,101435.41
2023-05-01T06:32:44.845Z,101440.94
2023-05-01T06:35:31.910Z,101446.28
2023-05-01T06:38:20.324Z,101437.84
2023-05-01T06:41:07.266Z,101435.72
2023-05-01T06:43:54.100Z,101440.72
2023-05-01T06:46:40.919Z,101433.66
2023-05-01T06:49:27.660Z,101434.34
2023-05-01T06:52:14.620Z,101431.50
2023-05-01T06:55:03.889Z,101442.41
2023-05-01T06:57:50.599Z,101428.00
2023-05-01T07:00:37.433Z,101437.88
2023-05-01T07:03:24.242Z,101437.66
2023-05-01T07:06:10.983Z,101426.06
2023-05-01T07:08:57.620Z,101427.47
2023-05-01T07:11:45.940Z,101429.13
2023-05-01T07:14:32.888Z,101423.97
2023-05-01T07:17:19.645Z,101427.09
2023-05-01T07:20:07.851Z,101426.00
2023-05-01T07:22:54.489Z,101427.47
2023-05-01T07:25:41.460Z,101425.03
2023-05-01T07:28:29.245Z,101421.13
2023-05-01T07:31:16.290Z,101410.72
2023-05-01T07:34:03.844Z,101412.78
2023-05-01T07:36:50.278Z,101409.50
2023-05-01T07:39:37.184Z,101406.03
2023-05-01T07:42:23.993Z,101400.63
2023-05-01T07:45:12.839Z,101405.94
2023-05-01T07:47:59.794Z,101397.88
2023-05-01T07:50:46.634Z,101391.66
2023-05-01T07:53:33.353Z,101380.41
2023-05-01T07:56:20.118Z,101383.13
2023-05-01T07:59:07.080Z,101381.66
2023-05-01T08:01:55.253Z,101379.78
2023-05-01T08:04:42.914Z,101378.97
2023-05-01T08:07:29.559Z,101372.81
2023-05-01T08:10:16.726Z,101371.16
2023-05-01T08:13:03.248Z,101371.91
2023-05-01T08:15:50.227Z,101363.72
2023-05-01T08:18:38.094Z,101361.25
2023-05-01T08:21:24.651Z,101364.56
2023-05-01T08:24:11.973Z,101367.03
2023-05-01T08:26:59.473Z,101364.75
2023-05-01T08:29:46.331Z,101363.56
2023-05-01T08:32:33.670Z,101359.63
2023-05-01T08:35:22.156Z,101370.53
2023-05-01T08:38:08.928Z,101354.69
2023-05-01T08:40:57.011Z,101332.31
2023-05-01T08:43:44.466Z,101355.19
2023-05-01T08:46:42.686Z,101353.41
2023-05-01T08:49:32.713Z,101351.06
2023-05-01T08:52:23.402Z,101348.47
2023-05-01T08:55:13.674Z,101348.09
2023-05-01T08:58:01.267Z,101337.72
2023-05-01T09:00:48.668Z,101313.44
2023-05-01T09:03:36.460Z,101328.59
2023-05-01T09:06:24.414Z,101321.88
2023-05-01T09:09:12.561Z,101325.72
2023-05-01T09:12:04.637Z,101322.16
2023-05-01T09:14:51.904Z,101316.97
2023-05-01T09:17:38.867Z,101311.28
2023-05-01T09:20:25.753Z,101309.56
2023-05-01T09:23:13.018Z,101309.34
2023-05-01T09:26:01.769Z,101302.47
2023-05-01T09:28:51.488Z,101298.09
2023-05-01T09:31:38.505Z,101296.34
2023-05-01T09:34:25.118Z,101274.72
2023-05-01T09:37:15.664Z,101288.84
2023-05-01T09:40:07.757Z,101284.06
2023-05-01T09:42:56.547Z,101283.59
2023-05-01T09:45:43.856Z,101273.28
2023-05-01T09:48:33.303Z,101267.91
2023-05-01T09:51:23.082Z,101266.34
2023-05-01T09:54:20.062Z,101266.34
2023-05-01T09:57:06.634Z,101267.25
2023-05-01T10:00:08.668Z,101259.72
2023-05-01T10:02:56.792Z,101261.84
2023-05-01T10:05:47.022Z,101264.34
2023-05-01T10:08:47.530Z,101247.50
2023-05-01T10:11:48.923Z,101246.50
2023-05-01T10:14:50.265Z,101237.25
2023-05-01T10:17:39.792Z,101235.41
2023-05-01T10:20:26.804Z,101233.69
2023-05-01T10:23:13.855Z,101233.06
2023-05-01T10:26:05.150Z,101221.94
2023-05-01T10:28:52.738Z,101225.50
2023-05-01T10:31:41.478Z,101214.81
2023-05-01T10:34:31.754Z,101203.56
2023-05-01T10:37:23.314Z,101203.31
2023-05-01T10:40:48.384Z,101193.72
2023-05-01T10:43:34.787Z,101183.47
2023-05-01T10:46:29.875Z,101201.03
2023-05-01T10:49:16.994Z,101187.25
2023-05-01T10:52:05.153Z,101180.75
2023-05-01T10:54:52.042Z,101175.41
2023-05-01T10:57:46.178Z,101164.84
2023-05-01T11:00:34.420Z,101161.84
2023-05-01T11:03:36.679Z,101163.19
2023-05-01T11:06:23.438Z,101160.19
2023-05-01T11:09:38.871Z,101153.25
2023-05-01T11:12:52.898Z,101142.41
2023-05-01T11:15:40.721Z,101134.56
2023-05-01T11:18:46.780Z,101106.09
2023-05-01T11:21:34.303Z,101129.66
2023-05-01T11:24:21.289Z,101135.03
2023-05-01T11:27:10.010Z,101120.50
2023-05-01T11:29:57.439Z,101116.97
2023-05-01T11:32:45.483Z,101091.22
2023-05-01T11:35:33.304Z,101095.63
2023-05-01T11:38:20.161Z,101101.13
2023-05-01T11:41:06.775Z,101100.38
2023-05-01T11:43:56.624Z,101075.47
2023-05-01T11:46:43.298Z,101088.53
2023-05-01T11:49:30.040Z,101087.53
2023-05-01T11:52:16.809Z,101079.28
2023-05-01T11:55:04.989Z,101077.09
2023-05-01T11:57:53.132Z,101076.25
2023-05-01T12:00:42.103Z,101075.28
2023-05-01T12:03:29.401Z,101064.41
2023-05-01T12:06:16.784Z,101060.31
2023-05-01T12:09:04.243Z,101055.25
2023-05-01T12:11:52.923Z,101048.84
2023-05-01T12:14:41.244Z,101056.53
2023-05-01T12:17:30.307Z,101052.22
2023-05-01T12:20:17.278Z,101051.91
2023-05-01T12:23:05.323Z,101050.63
2023-05-01T12:25:52.529Z,101043.00
2023-05-01T12:28:39.320Z,101047.47
2023-05-01T12:31:26.994Z,101036.94
2023-05-01T12:34:15.087Z,101033.66
2023-05-01T12:37:03.492Z,101039.31
2023-05-01T12:39:50.439Z,101031.53
2023-05-01T12:42:37.458Z,101028.78
2023-05-01T12:45:24.695Z,101015.56
2023-05-01T12:48:14.951Z,101008.28
2023-05-01T12:51:03.038Z,101012.66
2023-05-01T12:53:50.586Z,101007.38
2023-05-01T12:56:37.286Z,101004.97
2023-05-01T12:59:25.498Z,100996.22
2023-05-01T13:02:16.034Z,100996.88
2023-05-01T13:05:08.375Z,100989.91
2023-05-01T13:07:56.607Z,100978.19
2023-05-01T13:10:44.192Z,100975.84
2023-05-01T13:13:32.961Z,100977.50
2023-05-01T13:16:20.524Z,100979.28
2023-05-01T13:19:07.451Z,100979.22
2023-05-01T13:21:53.920Z,100976.75
2023-05-01T13:24:43.729Z,100982.88
2023-05-01T13:27:30.779Z,100968.03
2023-05-01T13:30:20.062Z,100974.78
2023-05-01T13:33:07.966Z,100971.63
2023-05-01T13:35:54.757Z,100964.63
2023-05-01T13:38:45.998Z,100964.53
2023-05-01T13:41:35.452Z,100953.19
2023-05-01T13:44:23.638Z,100955.19
2023-05-01T13:47:10.689Z,100952.88
2023-05-01T13:49:57.646Z,100956.84
2023-05-01T13:52:46.206Z,100946.22
2023-05-01T13:55:33.095Z,100936.53
2023-05-01T13:58:21.116Z,100932.88
2023-05-01T14:01:20.837Z,100938.97
2023-05-01T14:04:10.700Z,100929.72
2023-05-01T14:06:58.557Z,100922.03
2023-05-01T14:09:45.906Z,100927.56
2023-05-01T14:12:33.404Z,100917.22
2023-05-01T14:15:23.734Z,100915.50
2023-05-01T14:18:12.155Z,100904.72
2023-05-01T14:21:00.476Z,100897.34
2023-05-01T14:23:47.249Z,100902.72
2023-05-01T14:26:36.501Z,100903.44
2023-05-01T14:29:28.073Z,100856.72
2023-05-01T14:32:17.177Z,100899.28
2023-05-01T14:35:10.067Z,100895.22
2023-05-01T14:37:57.275Z,100892.41
2023-05-01T14:40:45.397Z,100892.19
2023-05-01T14:43:32.685Z,100896.34
2023-05-01T14:46:28.920Z,100885.06
2023-05-01T14:49:21.679Z,100885.53
2023-05-01T14:52:09.407Z,100875.28
2023-05-01T14:54:56.711Z,100872.72
2023-05-01T14:57:45.630Z,100866.41
2023-05-01T15:00:32.249Z,100878.75
2023-05-01T15:03:19.125Z,100869.09
2023-05-01T15:06:07.558Z,100863.91
2023-05-01T15:08:54.264Z,100872.72
2023-05-01T15:11:41.344Z,100873.00
2023-05-01T15:14:28.082Z,100871.56
2023-05-01T15:17:14.498Z,100866.97
2023-05-01T15:20:01.221Z,100864.25
2023-05-01T15:22:49.307Z,100865.56
2023-05-01T15:25:36.004Z,100862.63
2023-05-01T15:28:24.070Z,100859.25
2023-05-01T15:31:10.717Z,100863.81
2023-05-01T15:33:57.551Z,100861.09
2023-05-01T15:36:43.864Z,100854.97
2023-05-01T15:39:33.255Z,100852.78
2023-05-01T15:42:20.000Z,100865.69
2023-05-01T15:45:07.338Z,100858.13
2023-05-01T15:47:54.702Z,100859.84
2023-05-01T15:50:41.752Z,100853.00
2023-05-01T15:53:28.118Z,100851.25
2023-05-01T15:56:16.384Z,100790.47
2023-05-01T15:59:04.212Z,100846.94
2023-05-01T16:01:53.860Z,100841.44
2023-05-01T16:04:40.102Z,100838.81
2023-05-01T16:07:27.697Z,100840.56
2023-05-01T16:10:14.464Z,100836.28
2023-05-01T16:13:02.493Z,100837.53
2023-05-01T16:15:49.277Z,100841.22
2023-05-01T16:18:36.140Z,100838.41
2023-05-01T16:21:22.628Z,100837.44
2023-05-01T16:24:10.914Z,100831.59
2023-05-01T16:26:57.652Z,100823.75
2023-05-01T16:29:46.071Z,100825.34
2023-05-01T16:32:32.621Z,100827.91
2023-05-01T16:35:19.755Z,100825.84
2023-05-01T16:38:06.715Z,100817.25
2023-05-01T16:40:53.769Z,100821.72
2023-05-01T16:43:40.233Z,100828.44
2023-05-01T16:46:31.713Z,100828.66
2023-05-01T16:49:18.869Z,100829.91
2023-05-01T16:52:05.983Z,100826.09
2023-05-01T16:54:54.431Z,100828.91
2023-05-01T16:57:44.164Z,100825.34
2023-05-01T17:00:31.454Z,100819.44
2023-05-01T17:03:19.621Z,100822.16
2023-05-01T17:06:06.360Z,100823.34
2023-05-01T17:08:53.797Z,100821.47
2023-05-01T17:11:40.981Z,100826.44
2023-05-01T17:14:28.843Z,100818.66
2023-05-01T17:17:17.678Z,100822.88
2023-05-01T17:20:06.821Z,100824.41
2023-05-01T17:22:53.774Z,100816.75
2023-05-01T17:25:40.626Z,100822.56
2023-05-01T17:28:27.390Z,100816.56
2023-05-01T17:31:15.925Z,100818.59
2023-05-01T17:34:04.185Z,100821.00
2023-05-01T17:36:52.206Z,100812.81
2023-05-01T17:39:39.443Z,100819.28
2023-05-01T17:42:26.469Z,100816.16
2023-05-01T17:45:13.404Z,100821.53
2023-05-01T17:48:00.950Z,100816.47
2023-05-01T17:50:47.548Z,100808.44
2023-05-01T17:53:36.318Z,100810.28
2023-05-01T17:56:23.179Z,100813.75
2023-05-01T17:59:09.920Z,100812.31
2023-05-01T18:01:57.123Z,100812.03
2023-05-01T18:04:43.535Z,100812.06
2023-05-01T18:07:31.224Z,100817.06
2023-05-01T18:10:20.698Z,100803.28
2023-05-01T18:13:07.489Z,100802.97
2023-05-01T18:15:54.213Z,100809.66
2023-05-01T18:18:41.189Z,100813.09
2023-05-01T18:21:28.686Z,100805.25
2023-05-01T18:24:15.369Z,100797.31
2023-05-01T18:27:03.588Z,100796.06
2023-05-01T18:29:50.530Z,100791.34
2023-05-01T18:32:47.396Z,100798.78
2023-05-01T18:35:34.914Z,100795.72
2023-05-01T18:38:21.735Z,100796.16
2023-05-01T18:41:08.492Z,100802.63
2023-05-01T18:43:58.125Z,100809.81
2023-05-01T18:46:45.181Z,100810.16
2023-05-01T18:49:32.138Z,100809.09
2023-05-01T18:52:18.931Z,100804.94
2023-05-01T18:55:06.383Z,100804.34
2023-05-01T18:57:53.155Z,100808.75
2023-05-01T19:00:41.003Z,100814.38
2023-05-01T19:03:42.835Z,100802.13
2023-05-01T19:06:42.687Z,100800.28
2023-05-01T19:09:53.184Z,100807.19
2023-05-01T19:12:52.152Z,100810.69
2023-05-01T19:15:52.376Z,100823.78
2023-05-01T19:18:41.610Z,100820.00
2023-05-01T19:21:33.468Z,100826.50
2023-05-01T19:24:22.725Z,100815.38
2023-05-01T19:27:12.911Z,100818.44
2023-05-01T19:30:03.296Z,100823.44
2023-05-01T19:32:58.399Z,100810.88
2023-05-01T19:35:46.382Z,100819.25
2023-05-01T19:38:34.776Z,100815.56
2023-05-01T19:41:22.696Z,100806.78
2023-05-01T19:44:12.057Z,100812.41
2023-05-01T19:47:00.168Z,100784.88
2023-05-01T19:49:52.458Z,100811.00
2023-05-01T19:52:40.500Z,100806.78
2023-05-01T19:55:28.254Z,100805.44
2023-05-01T19:58:15.883Z,100810.50
2023-05-01T20:01:14.609Z,100803.59
2023-05-01T20:04:06.155Z,100805.75
2023-05-01T20:06:55.701Z,100807.72
2023-05-01T20:09:43.007Z,100809.81
2023-05-01T20:12:30.778Z,100810.16
2023-05-01T20:15:19.340Z,100803.09
2023-05-01T20:18:06.230Z,100810.22
2023-05-01T20:20:52.989Z,100804.94
2023-05-01T20:23:41.348Z,100802.69
2023-05-01T20:26:27.986Z,100804.69
2023-05-01T20:29:14.694Z,100804.00
2023-05-01T20:32:01.514Z,100806.88
2023-05-01T20:34:48.294Z,100805.78
2023-05-01T20:37:34.976Z,100797.16
2023-05-01T20:40:23.080Z,100797.41
2023-05-01T20:43:09.863Z,100804.13
2023-05-01T20:45:56.573Z,100809.13
2023-05-01T20:48:44.077Z,100802.47
2023-05-01T20:51:32.175Z,100793.00
2023-05-01T20:54:19.088Z,100800.63
2023-05-01T20:57:07.465Z,100802.22
2023-05-01T20:59:53.892Z,100804.00
2023-05-01T21:02:41.252Z,100800.38
2023-05-01T21:05:28.853Z,100800.59
2023-05-01T21:08:15.823Z,100806.75
2023-05-01T21:11:02.676Z,100803.97
2023-05-01T21:13:50.693Z,100804.97
2023-05-01T21:16:37.712Z,100801.56
2023-05-01T21:19:24.249Z,100800.81
2023-05-01T21:22:17.010Z,100803.31
2023-05-01T21:25:03.663Z,100806.25
2023-05-01T21:27:50.376Z,100811.63
2023-05-01T21:30:38.743Z,100809.16
2023-05-01T21:33:26.080Z,100812.75
2023-05-01T21:36:15.011Z,100810.09
2023-05-01T21:39:02.052Z,100813.47
2023-05-01T21:41:49.569Z,100808.09
2023-05-01T21:44:36.492Z,100811.69
2023-05-01T21:47:24.768Z,100809.16
2023-05-01T21:50:13.388Z,100805.84
2023-05-01T21:53:00.635Z,100804.13
2023-05-01T21:55:47.482Z,100807.44
2023-05-01T21:58:34.277Z,100807.50
2023-05-01T22:01:24.566Z,100810.44
2023-05-01T22:04:18.390Z,100813.28
2023-05-01T22:07:05.495Z,100816.69
2023-05-01T22:09:52.031Z,100813.94
2023-05-01T22:12:39.579Z,100819.16
2023-05-01T22:15:27.373Z,100821.91
2023-05-01T22:18:19.986Z,100817.75
2023-05-01T22:21:09.585Z,100821.22
2023-05-01T22:23:56.378Z,100816.88
2023-05-01T22:26:43.055Z,100815.88
2023-05-01T22:29:29.652Z,100814.09
2023-05-01T22:32:16.420Z,100814.34
2023-05-01T22:35:03.838Z,100808.69
2023-05-01T22:37:51.911Z,100806.91
2023-05-01T22:40:38.611Z,100801.13
2023-05-01T22:43:25.533Z,100805.69
2023-05-01T22:46:12.300Z,100809.69
2023-05-01T22:49:01.333Z,100815.44
2023-05-01T22:51:47.946Z,100820.94
2023-05-01T22:54:36.261Z,100821.06
2023-05-01T22:57:23.543Z,100810.31
2023-05-01T23:00:13.896Z,100817.47
2023-05-01T23:03:00.892Z,100819.31
2023-05-01T23:05:47.770Z,100816.09
2023-05-01T23:08:34.553Z,100813.84
2023-05-01T23:11:23.638Z,100820.28
2023-05-01T23:14:11.221Z,100818.31
2023-05-01T23:16:59.111Z,100815.53
2023-05-01T23:19:47.296Z,100820.16
2023-05-01T23:22:36.265Z,100822.94
2023-05-01T23:25:26.445Z,100820.16
2023-05-01T23:28:21.168Z,100820.28
2023-05-01T23:31:10.077Z,100811.97
2023-05-01T23:33:56.996Z,100819.69
2023-05-01T23:36:46.148Z,100820.84
2023-05-01T23:39:32.638Z,100817.16
2023-05-01T23:42:19.597Z,100817.84
2023-05-01T23:45:09.471Z,100810.69
2023-05-01T23:47:56.104Z,100812.44
2023-05-01T23:50:42.784Z,100811.25
2023-05-01T23:53:30.805Z,100812.25
2023-05-01T23:56:21.533Z,100806.25
2023-05-01T23:59:08.744Z,100807.34
